Terminal Aerodrome Forecast
Issued by NWS

Home | Current Version | Previous Version | Text Only | Print | Product List | Glossary On
Versions: 1 2 3 4 5 6 7 8 9 10 11 12 13 14 15 16 17 18 19 20 21 22 23 24 25 26 27
000
FTUS43 KAPX 291120
TAFPLN
TAF
KPLN 291120Z 2912/3012 17006KT P6SM BKN200
     FM291500 21010KT P6SM BKN200
     FM291700 22011G19KT P6SM VCSH BKN040
     FM292300 26009G15KT P6SM VCSH BKN060
     FM300400 25006KT P6SM VCSH BKN030
     FM300700 26006KT P6SM SCT025=

USA.gov is the U.S. government's official web portal to all federal, state and local government web resources and services.